createdAt,value
2018-08-03T16:41:35.044Z,98135.86
2018-08-03T16:44:04.605Z,98148.30
2018-08-03T16:46:33.248Z,98163.80
2018-08-03T16:49:01.842Z,98182.16
2018-08-03T16:51:30.582Z,98181.52
2018-08-03T16:53:59.311Z,98183.93
2018-08-03T16:56:27.989Z,98165.23
2018-08-03T16:58:56.667Z,98179.56
2018-08-03T17:01:25.306Z,98159.59
2018-08-03T17:03:54.242Z,98177.80
2018-08-03T17:06:22.810Z,98181.40
2018-08-03T17:08:51.309Z,98183.26
2018-08-03T17:11:20.928Z,98173.06
2018-08-03T17:13:49.767Z,98169.62
2018-08-03T17:16:18.370Z,98162.47
2018-08-03T17:18:46.922Z,98156.58
2018-08-03T17:21:17.241Z,98152.91
2018-08-03T17:23:46.040Z,98139.72
2018-08-03T17:26:15.777Z,98134.34
2018-08-03T17:28:44.286Z,98130.10
2018-08-03T17:31:12.905Z,98129.75
2018-08-03T17:33:41.432Z,98118.60
2018-08-03T17:36:09.990Z,98124.77
2018-08-03T17:38:38.571Z,98119.34
2018-08-03T17:41:07.134Z,98116.88
2018-08-03T17:43:35.726Z,98111.58
2018-08-03T17:46:04.456Z,98109.83
2018-08-03T17:48:33.164Z,98106.52
2018-08-03T17:51:01.767Z,98104.27
2018-08-03T17:53:30.432Z,98113.33
2018-08-03T17:55:59.025Z,98118.03
2018-08-03T17:58:27.497Z,98117.65
2018-08-03T18:00:56.022Z,98116.14
2018-08-03T18:03:24.486Z,98114.20
2018-08-03T18:05:53.029Z,98118.70
2018-08-03T18:08:21.571Z,98123.95
2018-08-03T18:10:50.174Z,98125.22
2018-08-03T18:13:18.733Z,98135.97
2018-08-03T18:15:47.298Z,98136.98
2018-08-03T18:18:15.801Z,98145.98
2018-08-03T18:20:44.360Z,98143.22
2018-08-03T18:23:12.837Z,98143.56
2018-08-03T18:25:41.392Z,98141.61
2018-08-03T18:28:09.908Z,98145.85
2018-08-03T18:30:38.405Z,98153.02
2018-08-03T18:33:06.954Z,98155.17
2018-08-03T18:35:35.432Z,98149.16
2018-08-03T18:38:03.943Z,98161.62
2018-08-03T18:40:32.575Z,98161.00
2018-08-03T18:43:01.073Z,98160.86
2018-08-03T18:45:29.558Z,98165.45
2018-08-03T18:47:58.073Z,98167.02
2018-08-03T18:50:26.639Z,98168.95
2018-08-03T18:52:55.206Z,98173.22
2018-08-03T18:55:23.687Z,98169.66
2018-08-03T18:57:52.208Z,98172.12
2018-08-03T19:00:21.363Z,98173.91
2018-08-03T19:02:49.867Z,98171.98
2018-08-03T19:05:18.376Z,98170.73
2018-08-03T19:07:46.947Z,98168.16
2018-08-03T19:10:15.514Z,98176.41
2018-08-03T19:12:44.037Z,98172.24
2018-08-03T19:15:12.509Z,98170.62
2018-08-03T19:17:41.003Z,98175.95
2018-08-03T19:20:09.635Z,98173.73
2018-08-03T19:22:38.204Z,98173.69
2018-08-03T19:25:06.738Z,98177.95
2018-08-03T19:27:35.271Z,98179.31
2018-08-03T19:30:03.891Z,98179.83
2018-08-03T19:32:32.462Z,98174.69
2018-08-03T19:35:01.008Z,98170.06
2018-08-03T19:37:29.613Z,98170.97
2018-08-03T19:39:58.132Z,98170.72
2018-08-03T19:42:26.754Z,98176.14
2018-08-03T19:44:55.264Z,98176.52
2018-08-03T19:47:23.793Z,98176.92
2018-08-03T19:49:52.301Z,98175.15
2018-08-03T19:52:20.866Z,98177.58
2018-08-03T19:54:49.371Z,98179.76
2018-08-03T19:57:17.992Z,98180.08
2018-08-03T19:59:46.485Z,98183.60
2018-08-03T20:02:15.121Z,98187.45
2018-08-03T20:04:43.615Z,98187.16
2018-08-03T20:07:12.232Z,98191.68
2018-08-03T20:09:40.816Z,98194.16
2018-08-03T20:12:09.414Z,98195.39
2018-08-03T20:14:37.910Z,98202.78
2018-08-03T20:17:06.426Z,98202.48
2018-08-03T20:19:34.972Z,98199.28
2018-08-03T20:22:03.571Z,98198.56
2018-08-03T20:24:32.172Z,98201.50
2018-08-03T20:27:00.639Z,98210.34
2018-08-03T20:29:29.110Z,98211.64
2018-08-03T20:31:57.617Z,98211.41
2018-08-03T20:34:26.141Z,98206.23
2018-08-03T20:36:54.617Z,98200.44
2018-08-03T20:39:23.089Z,98199.59
2018-08-03T20:41:51.622Z,98213.11
2018-08-03T20:44:20.164Z,98214.48
2018-08-03T20:46:48.637Z,98213.23
2018-08-03T20:49:17.179Z,98210.20
2018-08-03T20:51:45.714Z,98214.16
2018-08-03T20:54:14.258Z,98204.07
2018-08-03T20:56:42.821Z,98204.00
2018-08-03T20:59:11.369Z,98205.77
2018-08-03T21:01:40.015Z,98192.56
2018-08-03T21:04:08.563Z,98190.56
2018-08-03T21:06:37.115Z,98187.57
2018-08-03T21:09:08.393Z,98192.95
2018-08-03T21:11:36.929Z,98186.73
2018-08-03T21:14:05.814Z,98188.19
2018-08-03T21:16:34.381Z,98185.42
2018-08-03T21:19:03.490Z,98194.47
2018-08-03T21:21:31.981Z,98196.38
2018-08-03T21:24:00.596Z,98194.09
2018-08-03T21:26:29.140Z,98187.66
2018-08-03T21:28:57.655Z,98187.28
2018-08-03T21:31:26.127Z,98189.91
2018-08-03T21:33:54.749Z,98192.55
2018-08-03T21:36:23.247Z,98192.55
2018-08-03T21:38:51.753Z,98194.05
2018-08-03T21:41:20.264Z,98196.73
2018-08-03T21:43:48.871Z,98191.61
2018-08-03T21:46:17.350Z,98195.47
2018-08-03T21:48:45.877Z,98191.00
2018-08-03T21:51:14.458Z,98190.69
2018-08-03T21:53:43.041Z,98190.89
2018-08-03T21:56:11.549Z,98189.63
2018-08-03T21:58:40.134Z,98190.83
2018-08-03T22:01:12.007Z,98186.91
2018-08-03T22:03:40.550Z,98191.22
2018-08-03T22:06:09.150Z,98184.88
2018-08-03T22:08:37.914Z,98192.64
2018-08-03T22:11:06.498Z,98194.47
2018-08-03T22:13:35.055Z,98188.96
2018-08-03T22:16:03.641Z,98189.66
2018-08-03T22:18:32.203Z,98189.16
2018-08-03T22:21:00.738Z,98182.90
2018-08-03T22:23:29.396Z,98184.14
2018-08-03T22:25:58.356Z,98185.11
2018-08-03T22:28:26.871Z,98186.77
2018-08-03T22:30:55.454Z,98192.72
2018-08-03T22:33:24.027Z,98194.67
2018-08-03T22:35:52.583Z,98194.33
2018-08-03T22:38:21.150Z,98195.85
2018-08-03T22:40:49.823Z,98191.06
2018-08-03T22:43:18.348Z,98189.54
2018-08-03T22:45:46.964Z,98188.25
2018-08-03T22:48:15.486Z,98192.50
2018-08-03T22:50:44.035Z,98190.47
2018-08-03T22:53:12.690Z,98191.83
2018-08-03T22:55:41.250Z,98196.41
2018-08-03T22:58:09.781Z,98202.19
2018-08-03T23:00:38.520Z,98191.22
2018-08-03T23:03:07.159Z,98195.44
2018-08-03T23:05:35.744Z,98188.45
2018-08-03T23:08:04.323Z,98190.11
2018-08-03T23:10:32.989Z,98190.30
2018-08-03T23:13:01.523Z,98190.47
2018-08-03T23:15:30.107Z,98187.67
2018-08-03T23:17:58.658Z,98185.02
2018-08-03T23:20:27.189Z,98186.69
2018-08-03T23:22:55.683Z,98188.95
2018-08-03T23:25:24.332Z,98188.69
2018-08-03T23:27:52.877Z,98189.31
2018-08-03T23:30:21.416Z,98185.77
2018-08-03T23:32:49.909Z,98190.55
2018-08-03T23:35:18.460Z,98178.03
2018-08-03T23:37:47.040Z,98178.80
2018-08-03T23:40:15.586Z,98189.78
2018-08-03T23:42:44.101Z,98186.78
2018-08-03T23:45:12.634Z,98186.81
2018-08-03T23:47:41.133Z,98180.13
2018-08-03T23:50:13.560Z,98184.95
2018-08-03T23:52:42.241Z,98184.05
2018-08-03T23:55:10.846Z,98183.97
2018-08-03T23:57:39.710Z,98188.44
